sensor_id;sensor_type;location;lat;lon;timestamp;P1;durP1;ratioP1;P2;durP2;ratioP2
55710;SDS011;41612;51.994;5.880;2023-07-20T00:00:07;2.85;;;1.80;;
55710;SDS011;41612;51.994;5.880;2023-07-20T00:02:38;3.78;;;2.22;;
55710;SDS011;41612;51.994;5.880;2023-07-20T00:05:04;3.47;;;2.00;;
55710;SDS011;41612;51.994;5.880;2023-07-20T00:07:31;4.30;;;2.33;;
55710;SDS011;41612;51.994;5.880;2023-07-20T00:09:57;4.07;;;1.88;;
55710;SDS011;41612;51.994;5.880;2023-07-20T00:12:22;3.80;;;2.25;;
55710;SDS011;41612;51.994;5.880;2023-07-20T00:14:51;3.65;;;2.03;;
55710;SDS011;41612;51.994;5.880;2023-07-20T00:17:18;3.38;;;2.08;;
55710;SDS011;41612;51.994;5.880;2023-07-20T00:19:44;4.20;;;2.10;;
55710;SDS011;41612;51.994;5.880;2023-07-20T00:22:10;3.80;;;1.73;;
55710;SDS011;41612;51.994;5.880;2023-07-20T00:24:38;4.20;;;2.17;;
55710;SDS011;41612;51.994;5.880;2023-07-20T00:27:03;4.90;;;2.58;;
55710;SDS011;41612;51.994;5.880;2023-07-20T00:29:29;3.45;;;1.80;;
55710;SDS011;41612;51.994;5.880;2023-07-20T00:31:55;3.55;;;1.95;;
55710;SDS011;41612;51.994;5.880;2023-07-20T00:34:22;5.00;;;2.40;;
55710;SDS011;41612;51.994;5.880;2023-07-20T00:36:48;4.32;;;1.98;;
55710;SDS011;41612;51.994;5.880;2023-07-20T00:39:14;3.65;;;1.90;;
55710;SDS011;41612;51.994;5.880;2023-07-20T00:41:40;3.60;;;2.10;;
55710;SDS011;41612;51.994;5.880;2023-07-20T00:44:05;3.13;;;1.70;;
55710;SDS011;41612;51.994;5.880;2023-07-20T00:46:31;3.17;;;2.08;;
55710;SDS011;41612;51.994;5.880;2023-07-20T00:48:59;4.63;;;2.22;;
55710;SDS011;41612;51.994;5.880;2023-07-20T00:51:26;3.88;;;2.20;;
55710;SDS011;41612;51.994;5.880;2023-07-20T00:53:52;5.82;;;2.50;;
55710;SDS011;41612;51.994;5.880;2023-07-20T00:56:18;4.63;;;1.95;;
55710;SDS011;41612;51.994;5.880;2023-07-20T00:58:44;3.10;;;1.90;;
55710;SDS011;41612;51.994;5.880;2023-07-20T01:01:11;3.42;;;1.80;;
55710;SDS011;41612;51.994;5.880;2023-07-20T01:03:37;3.08;;;1.65;;
55710;SDS011;41612;51.994;5.880;2023-07-20T01:06:09;3.53;;;1.75;;
55710;SDS011;41612;51.994;5.880;2023-07-20T01:11:41;4.45;;;2.13;;
55710;SDS011;41612;51.994;5.880;2023-07-20T01:14:08;3.20;;;2.10;;
55710;SDS011;41612;51.994;5.880;2023-07-20T01:16:37;4.10;;;1.90;;
55710;SDS011;41612;51.994;5.880;2023-07-20T01:19:03;5.78;;;3.53;;
55710;SDS011;41612;51.994;5.880;2023-07-20T01:21:31;3.65;;;1.77;;
55710;SDS011;41612;51.994;5.880;2023-07-20T01:32:29;2.95;;;1.75;;
55710;SDS011;41612;51.994;5.880;2023-07-20T01:34:56;3.28;;;1.80;;
55710;SDS011;41612;51.994;5.880;2023-07-20T01:37:24;4.18;;;2.20;;
55710;SDS011;41612;51.994;5.880;2023-07-20T01:39:54;2.72;;;1.65;;
55710;SDS011;41612;51.994;5.880;2023-07-20T01:42:24;2.75;;;1.60;;
55710;SDS011;41612;51.994;5.880;2023-07-20T01:44:50;4.50;;;1.88;;
55710;SDS011;41612;51.994;5.880;2023-07-20T01:47:17;3.33;;;1.85;;
55710;SDS011;41612;51.994;5.880;2023-07-20T01:49:43;2.47;;;1.60;;
55710;SDS011;41612;51.994;5.880;2023-07-20T01:52:10;6.07;;;1.90;;
55710;SDS011;41612;51.994;5.880;2023-07-20T01:54:36;2.60;;;1.70;;
55710;SDS011;41612;51.994;5.880;2023-07-20T01:57:02;5.18;;;2.15;;
55710;SDS011;41612;51.994;5.880;2023-07-20T01:59:28;4.57;;;1.80;;
55710;SDS011;41612;51.994;5.880;2023-07-20T02:01:54;3.13;;;1.77;;
55710;SDS011;41612;51.994;5.880;2023-07-20T02:04:20;3.47;;;1.90;;
55710;SDS011;41612;51.994;5.880;2023-07-20T02:06:45;2.80;;;2.00;;
55710;SDS011;41612;51.994;5.880;2023-07-20T02:09:11;3.88;;;1.95;;
55710;SDS011;41612;51.994;5.880;2023-07-20T02:11:39;2.53;;;1.67;;
55710;SDS011;41612;51.994;5.880;2023-07-20T02:14:05;2.80;;;1.77;;
55710;SDS011;41612;51.994;5.880;2023-07-20T02:16:31;2.80;;;1.80;;
55710;SDS011;41612;51.994;5.880;2023-07-20T02:18:59;2.90;;;1.70;;
55710;SDS011;41612;51.994;5.880;2023-07-20T02:21:25;3.08;;;1.75;;
55710;SDS011;41612;51.994;5.880;2023-07-20T02:23:51;3.83;;;1.90;;
55710;SDS011;41612;51.994;5.880;2023-07-20T02:26:16;2.72;;;1.85;;
55710;SDS011;41612;51.994;5.880;2023-07-20T02:28:42;2.97;;;1.45;;
55710;SDS011;41612;51.994;5.880;2023-07-20T02:31:08;2.60;;;1.38;;
55710;SDS011;41612;51.994;5.880;2023-07-20T02:33:34;2.45;;;1.48;;
55710;SDS011;41612;51.994;5.880;2023-07-20T02:35:59;3.25;;;1.67;;
55710;SDS011;41612;51.994;5.880;2023-07-20T02:38:25;2.58;;;1.60;;
55710;SDS011;41612;51.994;5.880;2023-07-20T02:40:51;2.55;;;1.88;;
55710;SDS011;41612;51.994;5.880;2023-07-20T02:43:17;2.60;;;1.80;;
55710;SDS011;41612;51.994;5.880;2023-07-20T02:45:44;4.05;;;1.92;;
55710;SDS011;41612;51.994;5.880;2023-07-20T02:48:10;3.70;;;1.90;;
55710;SDS011;41612;51.994;5.880;2023-07-20T02:50:35;2.88;;;2.05;;
55710;SDS011;41612;51.994;5.880;2023-07-20T02:53:02;3.08;;;1.73;;
55710;SDS011;41612;51.994;5.880;2023-07-20T02:55:27;2.70;;;1.70;;
55710;SDS011;41612;51.994;5.880;2023-07-20T02:57:53;2.58;;;1.90;;
55710;SDS011;41612;51.994;5.880;2023-07-20T03:00:19;3.25;;;1.60;;
55710;SDS011;41612;51.994;5.880;2023-07-20T03:02:45;2.85;;;1.60;;
55710;SDS011;41612;51.994;5.880;2023-07-20T03:05:14;2.22;;;1.35;;
55710;SDS011;41612;51.994;5.880;2023-07-20T03:07:42;2.65;;;1.65;;
55710;SDS011;41612;51.994;5.880;2023-07-20T03:10:08;2.05;;;1.27;;
55710;SDS011;41612;51.994;5.880;2023-07-20T03:12:35;4.57;;;2.15;;
55710;SDS011;41612;51.994;5.880;2023-07-20T03:15:01;2.50;;;1.63;;
55710;SDS011;41612;51.994;5.880;2023-07-20T03:17:28;4.45;;;1.83;;
55710;SDS011;41612;51.994;5.880;2023-07-20T03:19:54;3.35;;;1.70;;
55710;SDS011;41612;51.994;5.880;2023-07-20T03:22:21;1.80;;;1.35;;
55710;SDS011;41612;51.994;5.880;2023-07-20T03:24:47;2.45;;;1.60;;
55710;SDS011;41612;51.994;5.880;2023-07-20T03:27:13;2.22;;;1.60;;
55710;SDS011;41612;51.994;5.880;2023-07-20T03:29:40;3.03;;;1.23;;
55710;SDS011;41612;51.994;5.880;2023-07-20T03:32:05;2.45;;;1.63;;
55710;SDS011;41612;51.994;5.880;2023-07-20T03:34:31;1.90;;;1.27;;
55710;SDS011;41612;51.994;5.880;2023-07-20T03:36:57;2.10;;;1.20;;
55710;SDS011;41612;51.994;5.880;2023-07-20T03:39:26;2.50;;;1.60;;
55710;SDS011;41612;51.994;5.880;2023-07-20T03:41:53;2.10;;;1.30;;
55710;SDS011;41612;51.994;5.880;2023-07-20T03:44:19;3.95;;;1.50;;
55710;SDS011;41612;51.994;5.880;2023-07-20T03:46:44;2.83;;;1.50;;
55710;SDS011;41612;51.994;5.880;2023-07-20T03:49:10;2.85;;;1.60;;
55710;SDS011;41612;51.994;5.880;2023-07-20T03:51:36;2.13;;;1.30;;
55710;SDS011;41612;51.994;5.880;2023-07-20T03:54:02;2.90;;;1.55;;
55710;SDS011;41612;51.994;5.880;2023-07-20T03:56:28;2.55;;;1.20;;
55710;SDS011;41612;51.994;5.880;2023-07-20T03:58:54;1.98;;;1.35;;
55710;SDS011;41612;51.994;5.880;2023-07-20T04:01:20;2.47;;;1.60;;
55710;SDS011;41612;51.994;5.880;2023-07-20T04:03:45;2.05;;;1.38;;
55710;SDS011;41612;51.994;5.880;2023-07-20T04:06:12;2.65;;;1.70;;
55710;SDS011;41612;51.994;5.880;2023-07-20T04:08:39;2.00;;;1.50;;
55710;SDS011;41612;51.994;5.880;2023-07-20T04:11:05;2.65;;;1.50;;
55710;SDS011;41612;51.994;5.880;2023-07-20T04:13:30;2.60;;;1.30;;
55710;SDS011;41612;51.994;5.880;2023-07-20T04:15:59;2.88;;;1.40;;
55710;SDS011;41612;51.994;5.880;2023-07-20T04:18:25;2.45;;;1.50;;
55710;SDS011;41612;51.994;5.880;2023-07-20T04:20:51;2.13;;;1.40;;
55710;SDS011;41612;51.994;5.880;2023-07-20T04:23:17;2.60;;;1.90;;
55710;SDS011;41612;51.994;5.880;2023-07-20T04:25:43;2.15;;;1.38;;
55710;SDS011;41612;51.994;5.880;2023-07-20T04:28:11;2.13;;;1.45;;
55710;SDS011;41612;51.994;5.880;2023-07-20T04:30:40;2.67;;;1.65;;
55710;SDS011;41612;51.994;5.880;2023-07-20T04:33:05;2.35;;;1.70;;
55710;SDS011;41612;51.994;5.880;2023-07-20T04:35:51;2.00;;;1.40;;
55710;SDS011;41612;51.994;5.880;2023-07-20T04:41:11;2.85;;;1.40;;
55710;SDS011;41612;51.994;5.880;2023-07-20T04:43:41;2.58;;;1.40;;
55710;SDS011;41612;51.994;5.880;2023-07-20T04:46:13;2.10;;;1.50;;
55710;SDS011;41612;51.994;5.880;2023-07-20T04:48:40;2.63;;;1.70;;
55710;SDS011;41612;51.994;5.880;2023-07-20T04:51:06;1.80;;;1.30;;
55710;SDS011;41612;51.994;5.880;2023-07-20T04:53:32;2.53;;;1.50;;
55710;SDS011;41612;51.994;5.880;2023-07-20T04:55:58;1.67;;;1.17;;
55710;SDS011;41612;51.994;5.880;2023-07-20T04:58:24;2.90;;;1.40;;
55710;SDS011;41612;51.994;5.880;2023-07-20T05:00:51;2.20;;;1.30;;
55710;SDS011;41612;51.994;5.880;2023-07-20T05:03:18;1.98;;;1.48;;
55710;SDS011;41612;51.994;5.880;2023-07-20T05:05:46;1.88;;;1.23;;
55710;SDS011;41612;51.994;5.880;2023-07-20T05:08:13;1.83;;;1.35;;
55710;SDS011;41612;51.994;5.880;2023-07-20T05:10:39;2.17;;;1.30;;
55710;SDS011;41612;51.994;5.880;2023-07-20T05:13:05;2.78;;;1.35;;
55710;SDS011;41612;51.994;5.880;2023-07-20T05:15:32;2.17;;;1.23;;
55710;SDS011;41612;51.994;5.880;2023-07-20T05:17:59;2.92;;;1.20;;
55710;SDS011;41612;51.994;5.880;2023-07-20T05:20:26;2.10;;;1.27;;
55710;SDS011;41612;51.994;5.880;2023-07-20T05:22:53;1.60;;;1.10;;
55710;SDS011;41612;51.994;5.880;2023-07-20T05:25:19;2.70;;;1.42;;
55710;SDS011;41612;51.994;5.880;2023-07-20T05:27:47;1.80;;;1.30;;
55710;SDS011;41612;51.994;5.880;2023-07-20T05:30:13;1.70;;;1.10;;
55710;SDS011;41612;51.994;5.880;2023-07-20T05:32:39;2.70;;;1.40;;
55710;SDS011;41612;51.994;5.880;2023-07-20T05:35:05;1.65;;;1.20;;
55710;SDS011;41612;51.994;5.880;2023-07-20T05:37:31;1.85;;;1.00;;
55710;SDS011;41612;51.994;5.880;2023-07-20T05:39:57;1.80;;;1.20;;
55710;SDS011;41612;51.994;5.880;2023-07-20T05:42:23;2.22;;;1.30;;
55710;SDS011;41612;51.994;5.880;2023-07-20T05:44:48;1.58;;;1.02;;
55710;SDS011;41612;51.994;5.880;2023-07-20T05:47:17;1.77;;;1.00;;
55710;SDS011;41612;51.994;5.880;2023-07-20T05:49:43;1.92;;;1.20;;
55710;SDS011;41612;51.994;5.880;2023-07-20T05:52:09;4.30;;;2.53;;
55710;SDS011;41612;51.994;5.880;2023-07-20T05:54:35;1.50;;;0.93;;
55710;SDS011;41612;51.994;5.880;2023-07-20T05:57:00;1.85;;;1.05;;
55710;SDS011;41612;51.994;5.880;2023-07-20T05:59:27;2.85;;;1.00;;
55710;SDS011;41612;51.994;5.880;2023-07-20T06:01:54;1.60;;;1.00;;
55710;SDS011;41612;51.994;5.880;2023-07-20T06:04:20;1.50;;;1.00;;
55710;SDS011;41612;51.994;5.880;2023-07-20T06:06:45;1.50;;;1.00;;
55710;SDS011;41612;51.994;5.880;2023-07-20T06:09:11;1.75;;;1.10;;
55710;SDS011;41612;51.994;5.880;2023-07-20T06:11:38;1.98;;;1.20;;
55710;SDS011;41612;51.994;5.880;2023-07-20T06:14:04;1.70;;;1.15;;
55710;SDS011;41612;51.994;5.880;2023-07-20T06:16:30;1.33;;;0.90;;
55710;SDS011;41612;51.994;5.880;2023-07-20T06:18:55;1.88;;;1.15;;
55710;SDS011;41612;51.994;5.880;2023-07-20T06:21:22;1.23;;;0.70;;
55710;SDS011;41612;51.994;5.880;2023-07-20T06:23:47;2.28;;;1.17;;
55710;SDS011;41612;51.994;5.880;2023-07-20T06:26:13;1.70;;;0.90;;
55710;SDS011;41612;51.994;5.880;2023-07-20T06:28:39;1.35;;;0.85;;
55710;SDS011;41612;51.994;5.880;2023-07-20T06:31:05;1.50;;;0.80;;
55710;SDS011;41612;51.994;5.880;2023-07-20T06:33:30;1.80;;;0.90;;
55710;SDS011;41612;51.994;5.880;2023-07-20T06:35:57;1.60;;;0.93;;
55710;SDS011;41612;51.994;5.880;2023-07-20T06:38:23;1.20;;;0.70;;
55710;SDS011;41612;51.994;5.880;2023-07-20T06:40:49;1.73;;;0.90;;
55710;SDS011;41612;51.994;5.880;2023-07-20T06:43:15;2.80;;;0.82;;
55710;SDS011;41612;51.994;5.880;2023-07-20T06:45:41;2.00;;;1.02;;
55710;SDS011;41612;51.994;5.880;2023-07-20T06:48:07;1.40;;;0.80;;
55710;SDS011;41612;51.994;5.880;2023-07-20T06:50:33;1.17;;;0.60;;
55710;SDS011;41612;51.994;5.880;2023-07-20T06:52:59;3.28;;;1.15;;
55710;SDS011;41612;51.994;5.880;2023-07-20T06:55:28;0.88;;;0.65;;
55710;SDS011;41612;51.994;5.880;2023-07-20T06:57:57;0.93;;;0.57;;
55710;SDS011;41612;51.994;5.880;2023-07-20T07:00:22;1.73;;;0.82;;
55710;SDS011;41612;51.994;5.880;2023-07-20T07:02:48;1.20;;;0.70;;
55710;SDS011;41612;51.994;5.880;2023-07-20T07:05:14;1.55;;;0.60;;
55710;SDS011;41612;51.994;5.880;2023-07-20T07:07:40;1.80;;;0.77;;
55710;SDS011;41612;51.994;5.880;2023-07-20T07:10:07;2.78;;;0.90;;
55710;SDS011;41612;51.994;5.880;2023-07-20T07:12:33;2.17;;;0.75;;
55710;SDS011;41612;51.994;5.880;2023-07-20T07:15:00;1.55;;;0.70;;
55710;SDS011;41612;51.994;5.880;2023-07-20T07:17:27;1.42;;;0.70;;
55710;SDS011;41612;51.994;5.880;2023-07-20T07:19:53;2.38;;;0.93;;
55710;SDS011;41612;51.994;5.880;2023-07-20T07:22:21;1.65;;;0.70;;
55710;SDS011;41612;51.994;5.880;2023-07-20T14:25:49;0.65;;;0.43;;
55710;SDS011;41612;51.994;5.880;2023-07-20T14:28:15;0.80;;;0.40;;
55710;SDS011;41612;51.994;5.880;2023-07-20T14:30:41;0.77;;;0.43;;
55710;SDS011;41612;51.994;5.880;2023-07-20T14:33:07;0.88;;;0.40;;
55710;SDS011;41612;51.994;5.880;2023-07-20T14:35:33;1.60;;;1.08;;
55710;SDS011;41612;51.994;5.880;2023-07-20T14:37:59;0.60;;;0.40;;
55710;SDS011;41612;51.994;5.880;2023-07-20T14:40:25;1.83;;;0.50;;
55710;SDS011;41612;51.994;5.880;2023-07-20T14:42:51;0.95;;;0.43;;
55710;SDS011;41612;51.994;5.880;2023-07-20T14:45:17;0.93;;;0.63;;
55710;SDS011;41612;51.994;5.880;2023-07-20T14:47:43;1.45;;;0.65;;
55710;SDS011;41612;51.994;5.880;2023-07-20T14:50:10;0.70;;;0.32;;
55710;SDS011;41612;51.994;5.880;2023-07-20T14:52:36;0.70;;;0.50;;
55710;SDS011;41612;51.994;5.880;2023-07-20T14:55:02;0.60;;;0.40;;
55710;SDS011;41612;51.994;5.880;2023-07-20T14:57:29;1.30;;;0.52;;
55710;SDS011;41612;51.994;5.880;2023-07-20T14:59:55;1.67;;;0.82;;
55710;SDS011;41612;51.994;5.880;2023-07-20T15:02:21;2.85;;;0.60;;
55710;SDS011;41612;51.994;5.880;2023-07-20T15:04:47;1.40;;;0.77;;
55710;SDS011;41612;51.994;5.880;2023-07-20T15:07:19;1.30;;;0.60;;
55710;SDS011;41612;51.994;5.880;2023-07-20T15:09:47;2.13;;;0.70;;
55710;SDS011;41612;51.994;5.880;2023-07-20T15:12:13;2.20;;;0.50;;
55710;SDS011;41612;51.994;5.880;2023-07-20T15:14:39;0.90;;;0.40;;
55710;SDS011;41612;51.994;5.880;2023-07-20T15:17:07;0.77;;;0.38;;
55710;SDS011;41612;51.994;5.880;2023-07-20T15:19:33;0.93;;;0.40;;
55710;SDS011;41612;51.994;5.880;2023-07-20T15:21:59;0.28;;;0.28;;
55710;SDS011;41612;51.994;5.880;2023-07-20T15:24:25;0.70;;;0.40;;
55710;SDS011;41612;51.994;5.880;2023-07-20T15:26:51;0.57;;;0.40;;
55710;SDS011;41612;51.994;5.880;2023-07-20T15:29:17;1.42;;;0.40;;
55710;SDS011;41612;51.994;5.880;2023-07-20T15:31:42;1.90;;;0.60;;
55710;SDS011;41612;51.994;5.880;2023-07-20T15:34:08;0.85;;;0.43;;
55710;SDS011;41612;51.994;5.880;2023-07-20T15:36:38;1.17;;;0.45;;
55710;SDS011;41612;51.994;5.880;2023-07-20T15:39:04;0.98;;;0.50;;
55710;SDS011;41612;51.994;5.880;2023-07-20T15:41:30;1.58;;;0.77;;
55710;SDS011;41612;51.994;5.880;2023-07-20T15:43:56;2.75;;;0.40;;
55710;SDS011;41612;51.994;5.880;2023-07-20T15:48:48;2.20;;;0.45;;
55710;SDS011;41612;51.994;5.880;2023-07-20T15:51:14;0.73;;;0.40;;
55710;SDS011;41612;51.994;5.880;2023-07-20T15:53:40;1.30;;;0.50;;
55710;SDS011;41612;51.994;5.880;2023-07-20T15:56:05;0.65;;;0.40;;
55710;SDS011;41612;51.994;5.880;2023-07-20T15:58:31;1.90;;;0.70;;
55710;SDS011;41612;51.994;5.880;2023-07-20T16:00:58;1.45;;;0.52;;
55710;SDS011;41612;51.994;5.880;2023-07-20T16:03:24;0.93;;;0.45;;
55710;SDS011;41612;51.994;5.880;2023-07-20T16:05:52;0.88;;;0.43;;
55710;SDS011;41612;51.994;5.880;2023-07-20T16:08:18;1.10;;;0.60;;
55710;SDS011;41612;51.994;5.880;2023-07-20T16:10:44;1.38;;;0.50;;
55710;SDS011;41612;51.994;5.880;2023-07-20T16:13:10;0.90;;;0.50;;
55710;SDS011;41612;51.994;5.880;2023-07-20T16:15:35;1.05;;;0.60;;
55710;SDS011;41612;51.994;5.880;2023-07-20T16:18:01;1.27;;;0.60;;
55710;SDS011;41612;51.994;5.880;2023-07-20T16:20:27;2.10;;;0.85;;
55710;SDS011;41612;51.994;5.880;2023-07-20T16:22:52;1.63;;;0.70;;
55710;SDS011;41612;51.994;5.880;2023-07-20T16:25:19;0.65;;;0.47;;
55710;SDS011;41612;51.994;5.880;2023-07-20T16:27:45;1.15;;;0.63;;
55710;SDS011;41612;51.994;5.880;2023-07-20T16:30:11;1.10;;;0.65;;
55710;SDS011;41612;51.994;5.880;2023-07-20T16:32:42;0.82;;;0.40;;
55710;SDS011;41612;51.994;5.880;2023-07-20T16:35:08;0.70;;;0.40;;
55710;SDS011;41612;51.994;5.880;2023-07-20T16:37:34;1.20;;;0.47;;
55710;SDS011;41612;51.994;5.880;2023-07-20T16:40:00;0.88;;;0.47;;
55710;SDS011;41612;51.994;5.880;2023-07-20T16:42:26;0.90;;;0.50;;
55710;SDS011;41612;51.994;5.880;2023-07-20T16:44:52;1.67;;;0.70;;
55710;SDS011;41612;51.994;5.880;2023-07-20T16:47:18;0.90;;;0.55;;
55710;SDS011;41612;51.994;5.880;2023-07-20T16:49:46;1.23;;;0.77;;
55710;SDS011;41612;51.994;5.880;2023-07-20T16:52:13;1.13;;;0.60;;
55710;SDS011;41612;51.994;5.880;2023-07-20T16:54:39;2.35;;;0.70;;
55710;SDS011;41612;51.994;5.880;2023-07-20T16:57:05;0.90;;;0.50;;
55710;SDS011;41612;51.994;5.880;2023-07-20T16:59:32;1.67;;;0.80;;
55710;SDS011;41612;51.994;5.880;2023-07-20T17:01:58;0.70;;;0.50;;
55710;SDS011;41612;51.994;5.880;2023-07-20T17:04:23;1.20;;;0.60;;
55710;SDS011;41612;51.994;5.880;2023-07-20T17:06:49;1.33;;;0.73;;
55710;SDS011;41612;51.994;5.880;2023-07-20T17:09:15;1.30;;;0.60;;
55710;SDS011;41612;51.994;5.880;2023-07-20T17:11:44;1.30;;;0.63;;
55710;SDS011;41612;51.994;5.880;2023-07-20T17:14:10;1.00;;;0.60;;
55710;SDS011;41612;51.994;5.880;2023-07-20T17:16:36;1.00;;;0.50;;
55710;SDS011;41612;51.994;5.880;2023-07-20T17:19:02;1.20;;;0.60;;
55710;SDS011;41612;51.994;5.880;2023-07-20T17:21:31;1.33;;;0.70;;
55710;SDS011;41612;51.994;5.880;2023-07-20T17:24:08;1.85;;;0.80;;
55710;SDS011;41612;51.994;5.880;2023-07-20T17:26:41;2.10;;;0.80;;
55710;SDS011;41612;51.994;5.880;2023-07-20T17:29:07;1.35;;;0.63;;
55710;SDS011;41612;51.994;5.880;2023-07-20T17:31:32;1.00;;;0.60;;
55710;SDS011;41612;51.994;5.880;2023-07-20T17:33:59;1.75;;;0.75;;
55710;SDS011;41612;51.994;5.880;2023-07-20T17:36:25;2.10;;;0.98;;
55710;SDS011;41612;51.994;5.880;2023-07-20T17:38:50;0.90;;;0.60;;
55710;SDS011;41612;51.994;5.880;2023-07-20T17:41:16;1.40;;;0.70;;
55710;SDS011;41612;51.994;5.880;2023-07-20T17:43:42;3.25;;;0.80;;
55710;SDS011;41612;51.994;5.880;2023-07-20T17:46:08;1.08;;;0.60;;
55710;SDS011;41612;51.994;5.880;2023-07-20T17:48:33;1.38;;;0.80;;
55710;SDS011;41612;51.994;5.880;2023-07-20T17:50:59;1.45;;;0.73;;
55710;SDS011;41612;51.994;5.880;2023-07-20T17:53:25;1.20;;;0.70;;
55710;SDS011;41612;51.994;5.880;2023-07-20T17:55:54;1.27;;;0.70;;
55710;SDS011;41612;51.994;5.880;2023-07-20T17:58:20;1.55;;;0.80;;
55710;SDS011;41612;51.994;5.880;2023-07-20T18:00:46;1.00;;;0.75;;
55710;SDS011;41612;51.994;5.880;2023-07-20T18:03:11;2.03;;;0.80;;
55710;SDS011;41612;51.994;5.880;2023-07-20T18:05:37;1.67;;;0.80;;
55710;SDS011;41612;51.994;5.880;2023-07-20T18:08:03;0.93;;;0.60;;
55710;SDS011;41612;51.994;5.880;2023-07-20T18:10:29;1.08;;;0.70;;
55710;SDS011;41612;51.994;5.880;2023-07-20T18:12:55;1.30;;;0.82;;
55710;SDS011;41612;51.994;5.880;2023-07-20T18:15:20;1.45;;;0.77;;
55710;SDS011;41612;51.994;5.880;2023-07-20T18:17:46;1.08;;;0.70;;
55710;SDS011;41612;51.994;5.880;2023-07-20T18:20:12;1.33;;;0.70;;
55710;SDS011;41612;51.994;5.880;2023-07-20T18:22:38;1.77;;;0.75;;
55710;SDS011;41612;51.994;5.880;2023-07-20T18:25:04;1.60;;;0.90;;
55710;SDS011;41612;51.994;5.880;2023-07-20T18:27:30;1.45;;;0.80;;
55710;SDS011;41612;51.994;5.880;2023-07-20T18:29:56;1.67;;;0.90;;
55710;SDS011;41612;51.994;5.880;2023-07-20T18:32:22;4.05;;;1.35;;
55710;SDS011;41612;51.994;5.880;2023-07-20T18:34:48;1.35;;;0.73;;
55710;SDS011;41612;51.994;5.880;2023-07-20T18:37:15;1.50;;;0.80;;
55710;SDS011;41612;51.994;5.880;2023-07-20T18:39:45;1.52;;;0.90;;
55710;SDS011;41612;51.994;5.880;2023-07-20T18:42:12;1.92;;;0.88;;
55710;SDS011;41612;51.994;5.880;2023-07-20T18:44:38;1.35;;;0.50;;
55710;SDS011;41612;51.994;5.880;2023-07-20T18:47:04;1.45;;;0.88;;
55710;SDS011;41612;51.994;5.880;2023-07-20T18:49:31;1.48;;;0.73;;
55710;SDS011;41612;51.994;5.880;2023-07-20T18:51:57;2.03;;;0.73;;
55710;SDS011;41612;51.994;5.880;2023-07-20T18:54:23;1.52;;;0.90;;
55710;SDS011;41612;51.994;5.880;2023-07-20T18:56:49;1.88;;;0.90;;
55710;SDS011;41612;51.994;5.880;2023-07-20T18:59:16;1.85;;;0.90;;
55710;SDS011;41612;51.994;5.880;2023-07-20T19:01:42;1.52;;;0.90;;
55710;SDS011;41612;51.994;5.880;2023-07-20T19:04:08;1.35;;;0.77;;
55710;SDS011;41612;51.994;5.880;2023-07-20T19:06:34;1.20;;;0.80;;
55710;SDS011;41612;51.994;5.880;2023-07-20T19:09:00;1.50;;;0.70;;
55710;SDS011;41612;51.994;5.880;2023-07-20T19:11:25;1.60;;;0.80;;
55710;SDS011;41612;51.994;5.880;2023-07-20T19:13:51;1.55;;;0.90;;
55710;SDS011;41612;51.994;5.880;2023-07-20T19:16:17;2.10;;;0.82;;
55710;SDS011;41612;51.994;5.880;2023-07-20T19:18:42;1.20;;;0.80;;
55710;SDS011;41612;51.994;5.880;2023-07-20T19:21:08;3.78;;;1.60;;
55710;SDS011;41612;51.994;5.880;2023-07-20T19:23:34;5.05;;;2.00;;
55710;SDS011;41612;51.994;5.880;2023-07-20T19:26:06;1.85;;;1.10;;
55710;SDS011;41612;51.994;5.880;2023-07-20T19:28:34;2.25;;;1.20;;
55710;SDS011;41612;51.994;5.880;2023-07-20T19:31:02;1.55;;;0.75;;
55710;SDS011;41612;51.994;5.880;2023-07-20T19:33:28;1.42;;;1.10;;
55710;SDS011;41612;51.994;5.880;2023-07-20T19:35:55;2.08;;;0.82;;
55710;SDS011;41612;51.994;5.880;2023-07-20T19:38:25;1.13;;;0.80;;
55710;SDS011;41612;51.994;5.880;2023-07-20T19:40:52;1.58;;;0.77;;
55710;SDS011;41612;51.994;5.880;2023-07-20T19:43:21;1.83;;;1.02;;
55710;SDS011;41612;51.994;5.880;2023-07-20T19:45:47;1.02;;;0.68;;
55710;SDS011;41612;51.994;5.880;2023-07-20T19:48:14;6.95;;;2.03;;
55710;SDS011;41612;51.994;5.880;2023-07-20T19:50:48;2.72;;;1.83;;
55710;SDS011;41612;51.994;5.880;2023-07-20T19:53:15;2.60;;;1.52;;
55710;SDS011;41612;51.994;5.880;2023-07-20T19:55:42;3.45;;;1.48;;
55710;SDS011;41612;51.994;5.880;2023-07-20T19:58:08;1.95;;;1.10;;
55710;SDS011;41612;51.994;5.880;2023-07-20T20:00:40;3.10;;;1.40;;
55710;SDS011;41612;51.994;5.880;2023-07-20T20:03:07;2.33;;;1.40;;
55710;SDS011;41612;51.994;5.880;2023-07-20T20:05:36;3.65;;;1.58;;
55710;SDS011;41612;51.994;5.880;2023-07-20T20:08:03;3.00;;;2.03;;
55710;SDS011;41612;51.994;5.880;2023-07-20T20:10:30;2.10;;;1.30;;
55710;SDS011;41612;51.994;5.880;2023-07-20T20:12:57;1.83;;;1.10;;
55710;SDS011;41612;51.994;5.880;2023-07-20T20:15:23;1.35;;;0.90;;
55710;SDS011;41612;51.994;5.880;2023-07-20T20:17:50;1.60;;;0.93;;
55710;SDS011;41612;51.994;5.880;2023-07-20T20:20:16;2.20;;;1.15;;
55710;SDS011;41612;51.994;5.880;2023-07-20T20:22:42;2.30;;;1.35;;
55710;SDS011;41612;51.994;5.880;2023-07-20T20:25:08;3.38;;;1.10;;
55710;SDS011;41612;51.994;5.880;2023-07-20T20:27:34;2.15;;;1.45;;
55710;SDS011;41612;51.994;5.880;2023-07-20T20:29:59;2.58;;;1.17;;
55710;SDS011;41612;51.994;5.880;2023-07-20T20:32:25;1.92;;;1.17;;
55710;SDS011;41612;51.994;5.880;2023-07-20T20:34:51;1.98;;;1.02;;
55710;SDS011;41612;51.994;5.880;2023-07-20T20:37:17;2.08;;;1.00;;
55710;SDS011;41612;51.994;5.880;2023-07-20T20:39:49;2.03;;;1.10;;
55710;SDS011;41612;51.994;5.880;2023-07-20T20:42:16;2.33;;;1.08;;
55710;SDS011;41612;51.994;5.880;2023-07-20T20:44:42;2.83;;;1.10;;
55710;SDS011;41612;51.994;5.880;2023-07-20T20:47:08;1.95;;;1.08;;
55710;SDS011;41612;51.994;5.880;2023-07-20T20:49:34;2.50;;;1.30;;
55710;SDS011;41612;51.994;5.880;2023-07-20T20:52:13;3.28;;;1.58;;
55710;SDS011;41612;51.994;5.880;2023-07-20T20:54:40;1.75;;;1.15;;
55710;SDS011;41612;51.994;5.880;2023-07-20T20:57:06;1.83;;;1.30;;
55710;SDS011;41612;51.994;5.880;2023-07-20T20:59:32;2.50;;;1.20;;
55710;SDS011;41612;51.994;5.880;2023-07-20T21:02:02;1.63;;;1.23;;
55710;SDS011;41612;51.994;5.880;2023-07-20T21:04:29;3.00;;;1.30;;
55710;SDS011;41612;51.994;5.880;2023-07-20T21:06:54;2.30;;;1.23;;
55710;SDS011;41612;51.994;5.880;2023-07-20T21:09:20;2.20;;;1.40;;
55710;SDS011;41612;51.994;5.880;2023-07-20T21:11:46;2.10;;;1.45;;
55710;SDS011;41612;51.994;5.880;2023-07-20T21:14:12;2.78;;;1.30;;
55710;SDS011;41612;51.994;5.880;2023-07-20T21:16:38;1.67;;;1.10;;
55710;SDS011;41612;51.994;5.880;2023-07-20T21:19:04;3.17;;;1.15;;
55710;SDS011;41612;51.994;5.880;2023-07-20T21:21:29;2.88;;;1.27;;
55710;SDS011;41612;51.994;5.880;2023-07-20T21:23:55;1.95;;;1.20;;
55710;SDS011;41612;51.994;5.880;2023-07-20T21:26:21;1.98;;;1.23;;
55710;SDS011;41612;51.994;5.880;2023-07-20T21:28:47;2.63;;;1.50;;
55710;SDS011;41612;51.994;5.880;2023-07-20T21:31:13;3.85;;;1.45;;
55710;SDS011;41612;51.994;5.880;2023-07-20T21:33:39;2.28;;;1.30;;
55710;SDS011;41612;51.994;5.880;2023-07-20T21:36:05;2.05;;;1.20;;
55710;SDS011;41612;51.994;5.880;2023-07-20T21:38:31;2.15;;;1.05;;
55710;SDS011;41612;51.994;5.880;2023-07-20T21:40:58;1.95;;;1.30;;
55710;SDS011;41612;51.994;5.880;2023-07-20T21:43:24;2.97;;;1.20;;
55710;SDS011;41612;51.994;5.880;2023-07-20T21:45:50;2.55;;;1.25;;
55710;SDS011;41612;51.994;5.880;2023-07-20T21:48:16;2.53;;;1.35;;
55710;SDS011;41612;51.994;5.880;2023-07-20T21:50:46;1.75;;;1.00;;
55710;SDS011;41612;51.994;5.880;2023-07-20T21:53:16;2.17;;;1.17;;
55710;SDS011;41612;51.994;5.880;2023-07-20T21:55:42;1.38;;;1.02;;
55710;SDS011;41612;51.994;5.880;2023-07-20T21:58:08;2.03;;;1.20;;
55710;SDS011;41612;51.994;5.880;2023-07-20T22:00:34;2.20;;;1.23;;